sensor_id;sensor_type;location;lat;lon;timestamp;P1;durP1;ratioP1;P2;durP2;ratioP2
65150;SDS011;51918;51.856;0.150;2022-08-19T00:01:31;5.22;;;2.15;;
65150;SDS011;51918;51.856;0.150;2022-08-19T00:06:33;3.60;;;1.85;;
65150;SDS011;51918;51.856;0.150;2022-08-19T00:11:36;2.88;;;1.70;;
65150;SDS011;51918;51.856;0.150;2022-08-19T00:16:38;3.65;;;1.40;;
65150;SDS011;51918;51.856;0.150;2022-08-19T00:21:40;4.03;;;1.50;;
65150;SDS011;51918;51.856;0.150;2022-08-19T00:26:43;4.55;;;2.00;;
65150;SDS011;51918;51.856;0.150;2022-08-19T00:31:44;7.60;;;1.95;;
65150;SDS011;51918;51.856;0.150;2022-08-19T00:36:45;8.25;;;1.60;;
65150;SDS011;51918;51.856;0.150;2022-08-19T00:41:47;3.63;;;1.60;;
65150;SDS011;51918;51.856;0.150;2022-08-19T00:46:49;2.70;;;1.38;;
65150;SDS011;51918;51.856;0.150;2022-08-19T00:51:52;2.80;;;1.58;;
65150;SDS011;51918;51.856;0.150;2022-08-19T00:56:59;3.38;;;1.50;;
65150;SDS011;51918;51.856;0.150;2022-08-19T01:02:01;4.13;;;1.38;;
65150;SDS011;51918;51.856;0.150;2022-08-19T01:07:02;2.65;;;1.75;;
65150;SDS011;51918;51.856;0.150;2022-08-19T01:12:04;2.38;;;1.40;;
65150;SDS011;51918;51.856;0.150;2022-08-19T01:17:05;3.40;;;1.35;;
65150;SDS011;51918;51.856;0.150;2022-08-19T01:22:08;3.10;;;1.40;;
65150;SDS011;51918;51.856;0.150;2022-08-19T01:27:14;3.63;;;1.50;;
65150;SDS011;51918;51.856;0.150;2022-08-19T01:32:16;3.17;;;1.30;;
65150;SDS011;51918;51.856;0.150;2022-08-19T01:37:17;4.15;;;1.40;;
65150;SDS011;51918;51.856;0.150;2022-08-19T01:42:19;2.83;;;1.10;;
65150;SDS011;51918;51.856;0.150;2022-08-19T01:47:19;2.40;;;1.20;;
65150;SDS011;51918;51.856;0.150;2022-08-19T01:52:20;3.92;;;1.55;;
65150;SDS011;51918;51.856;0.150;2022-08-19T01:57:22;3.50;;;1.80;;
65150;SDS011;51918;51.856;0.150;2022-08-19T02:02:23;2.92;;;1.30;;
65150;SDS011;51918;51.856;0.150;2022-08-19T02:07:23;2.67;;;1.33;;
65150;SDS011;51918;51.856;0.150;2022-08-19T02:12:25;4.53;;;1.40;;
65150;SDS011;51918;51.856;0.150;2022-08-19T02:17:26;3.42;;;1.10;;
65150;SDS011;51918;51.856;0.150;2022-08-19T02:22:26;2.88;;;1.40;;
65150;SDS011;51918;51.856;0.150;2022-08-19T02:27:29;4.07;;;1.35;;
65150;SDS011;51918;51.856;0.150;2022-08-19T02:32:29;3.45;;;1.50;;
65150;SDS011;51918;51.856;0.150;2022-08-19T02:37:30;3.58;;;1.50;;
65150;SDS011;51918;51.856;0.150;2022-08-19T02:42:32;2.80;;;1.52;;
65150;SDS011;51918;51.856;0.150;2022-08-19T02:47:32;4.03;;;1.63;;
65150;SDS011;51918;51.856;0.150;2022-08-19T02:52:33;3.03;;;1.48;;
65150;SDS011;51918;51.856;0.150;2022-08-19T02:57:36;3.30;;;1.77;;
65150;SDS011;51918;51.856;0.150;2022-08-19T03:02:36;3.63;;;1.50;;
65150;SDS011;51918;51.856;0.150;2022-08-19T03:07:37;2.58;;;1.60;;
65150;SDS011;51918;51.856;0.150;2022-08-19T03:12:39;5.50;;;2.22;;
65150;SDS011;51918;51.856;0.150;2022-08-19T03:17:40;4.43;;;1.60;;
65150;SDS011;51918;51.856;0.150;2022-08-19T03:22:40;3.22;;;1.58;;
65150;SDS011;51918;51.856;0.150;2022-08-19T03:27:42;4.35;;;1.70;;
65150;SDS011;51918;51.856;0.150;2022-08-19T03:32:43;4.25;;;1.95;;
65150;SDS011;51918;51.856;0.150;2022-08-19T03:37:43;6.80;;;2.13;;
65150;SDS011;51918;51.856;0.150;2022-08-19T03:42:45;3.50;;;2.05;;
65150;SDS011;51918;51.856;0.150;2022-08-19T03:47:46;4.13;;;1.85;;
65150;SDS011;51918;51.856;0.150;2022-08-19T03:52:47;3.92;;;1.73;;
65150;SDS011;51918;51.856;0.150;2022-08-19T03:57:50;3.60;;;1.80;;
65150;SDS011;51918;51.856;0.150;2022-08-19T04:02:50;3.78;;;1.75;;
65150;SDS011;51918;51.856;0.150;2022-08-19T04:07:51;3.17;;;1.63;;
65150;SDS011;51918;51.856;0.150;2022-08-19T04:12:53;3.45;;;1.85;;
65150;SDS011;51918;51.856;0.150;2022-08-19T04:17:53;4.65;;;2.30;;
65150;SDS011;51918;51.856;0.150;2022-08-19T04:22:54;4.20;;;1.95;;
65150;SDS011;51918;51.856;0.150;2022-08-19T04:27:58;3.78;;;1.77;;
65150;SDS011;51918;51.856;0.150;2022-08-19T04:32:58;4.75;;;1.90;;
65150;SDS011;51918;51.856;0.150;2022-08-19T04:37:59;4.88;;;2.13;;
65150;SDS011;51918;51.856;0.150;2022-08-19T04:43:01;3.90;;;1.83;;
65150;SDS011;51918;51.856;0.150;2022-08-19T04:48:02;4.30;;;2.45;;
65150;SDS011;51918;51.856;0.150;2022-08-19T04:53:03;4.93;;;2.60;;
65150;SDS011;51918;51.856;0.150;2022-08-19T04:58:05;5.32;;;2.15;;
65150;SDS011;51918;51.856;0.150;2022-08-19T05:03:05;5.28;;;2.40;;
65150;SDS011;51918;51.856;0.150;2022-08-19T05:08:06;7.57;;;2.53;;
65150;SDS011;51918;51.856;0.150;2022-08-19T05:13:08;5.88;;;2.50;;
65150;SDS011;51918;51.856;0.150;2022-08-19T05:18:08;7.05;;;2.47;;
65150;SDS011;51918;51.856;0.150;2022-08-19T05:23:10;4.47;;;2.35;;
65150;SDS011;51918;51.856;0.150;2022-08-19T05:28:12;4.63;;;1.95;;
65150;SDS011;51918;51.856;0.150;2022-08-19T05:33:12;5.32;;;2.40;;
65150;SDS011;51918;51.856;0.150;2022-08-19T05:38:13;5.40;;;2.50;;
65150;SDS011;51918;51.856;0.150;2022-08-19T05:43:15;6.40;;;2.83;;
65150;SDS011;51918;51.856;0.150;2022-08-19T05:48:15;4.25;;;1.90;;
65150;SDS011;51918;51.856;0.150;2022-08-19T05:53:16;2.80;;;1.50;;
65150;SDS011;51918;51.856;0.150;2022-08-19T05:58:18;3.40;;;1.65;;
65150;SDS011;51918;51.856;0.150;2022-08-19T06:03:19;3.63;;;1.35;;
65150;SDS011;51918;51.856;0.150;2022-08-19T06:08:19;3.60;;;1.60;;
65150;SDS011;51918;51.856;0.150;2022-08-19T06:13:21;2.80;;;1.20;;
65150;SDS011;51918;51.856;0.150;2022-08-19T06:18:22;2.70;;;0.95;;
65150;SDS011;51918;51.856;0.150;2022-08-19T06:23:23;2.10;;;0.98;;
65150;SDS011;51918;51.856;0.150;2022-08-19T06:28:25;3.15;;;1.30;;
65150;SDS011;51918;51.856;0.150;2022-08-19T06:33:25;2.05;;;1.00;;
65150;SDS011;51918;51.856;0.150;2022-08-19T06:38:26;2.13;;;1.02;;
65150;SDS011;51918;51.856;0.150;2022-08-19T06:43:28;2.10;;;1.10;;
65150;SDS011;51918;51.856;0.150;2022-08-19T06:48:29;1.42;;;0.90;;
65150;SDS011;51918;51.856;0.150;2022-08-19T06:53:29;1.52;;;1.00;;
65150;SDS011;51918;51.856;0.150;2022-08-19T06:58:31;1.30;;;0.85;;
65150;SDS011;51918;51.856;0.150;2022-08-19T07:03:33;2.88;;;0.90;;
65150;SDS011;51918;51.856;0.150;2022-08-19T07:08:35;1.60;;;1.00;;
65150;SDS011;51918;51.856;0.150;2022-08-19T07:13:38;1.40;;;0.85;;
65150;SDS011;51918;51.856;0.150;2022-08-19T07:18:39;2.55;;;1.10;;
65150;SDS011;51918;51.856;0.150;2022-08-19T07:23:40;2.50;;;1.00;;
65150;SDS011;51918;51.856;0.150;2022-08-19T07:28:43;2.65;;;0.70;;
65150;SDS011;51918;51.856;0.150;2022-08-19T07:33:46;2.53;;;1.27;;
65150;SDS011;51918;51.856;0.150;2022-08-19T07:38:48;1.77;;;0.90;;
65150;SDS011;51918;51.856;0.150;2022-08-19T07:43:51;1.95;;;0.90;;
65150;SDS011;51918;51.856;0.150;2022-08-19T07:48:52;1.85;;;0.77;;
65150;SDS011;51918;51.856;0.150;2022-08-19T07:53:53;2.47;;;0.80;;
65150;SDS011;51918;51.856;0.150;2022-08-19T07:58:55;1.27;;;0.63;;
65150;SDS011;51918;51.856;0.150;2022-08-19T08:03:56;1.55;;;0.70;;
65150;SDS011;51918;51.856;0.150;2022-08-19T08:08:58;2.65;;;0.70;;
65150;SDS011;51918;51.856;0.150;2022-08-19T08:14:00;1.25;;;0.60;;
65150;SDS011;51918;51.856;0.150;2022-08-19T08:19:03;1.63;;;0.70;;
65150;SDS011;51918;51.856;0.150;2022-08-19T08:24:04;1.38;;;0.60;;
65150;SDS011;51918;51.856;0.150;2022-08-19T08:29:06;1.75;;;0.70;;
65150;SDS011;51918;51.856;0.150;2022-08-19T08:34:07;2.22;;;0.80;;
65150;SDS011;51918;51.856;0.150;2022-08-19T08:39:08;3.13;;;0.90;;
65150;SDS011;51918;51.856;0.150;2022-08-19T08:44:12;1.95;;;0.63;;
65150;SDS011;51918;51.856;0.150;2022-08-19T08:49:19;1.63;;;0.80;;
65150;SDS011;51918;51.856;0.150;2022-08-19T08:54:29;2.92;;;0.80;;
65150;SDS011;51918;51.856;0.150;2022-08-19T09:04:37;2.17;;;0.70;;
65150;SDS011;51918;51.856;0.150;2022-08-19T09:09:39;1.48;;;0.80;;
65150;SDS011;51918;51.856;0.150;2022-08-19T09:14:45;1.50;;;0.80;;
65150;SDS011;51918;51.856;0.150;2022-08-19T09:19:50;3.90;;;1.20;;
65150;SDS011;51918;51.856;0.150;2022-08-19T09:24:52;3.58;;;0.90;;
65150;SDS011;51918;51.856;0.150;2022-08-19T09:29:54;3.63;;;1.20;;
65150;SDS011;51918;51.856;0.150;2022-08-19T09:35:00;2.28;;;0.95;;
65150;SDS011;51918;51.856;0.150;2022-08-19T09:40:02;3.17;;;1.00;;
65150;SDS011;51918;51.856;0.150;2022-08-19T09:45:05;4.82;;;1.05;;
65150;SDS011;51918;51.856;0.150;2022-08-19T09:50:07;2.15;;;0.95;;
65150;SDS011;51918;51.856;0.150;2022-08-19T09:55:10;3.13;;;1.10;;
65150;SDS011;51918;51.856;0.150;2022-08-19T10:00:13;2.58;;;0.88;;
65150;SDS011;51918;51.856;0.150;2022-08-19T10:05:14;3.63;;;1.40;;
65150;SDS011;51918;51.856;0.150;2022-08-19T10:10:15;1.63;;;0.75;;
65150;SDS011;51918;51.856;0.150;2022-08-19T10:15:17;2.50;;;0.90;;
65150;SDS011;51918;51.856;0.150;2022-08-19T10:20:18;3.65;;;0.95;;
65150;SDS011;51918;51.856;0.150;2022-08-19T10:25:19;2.55;;;0.80;;
65150;SDS011;51918;51.856;0.150;2022-08-19T10:30:20;2.60;;;1.00;;
65150;SDS011;51918;51.856;0.150;2022-08-19T10:35:21;3.30;;;0.80;;
65150;SDS011;51918;51.856;0.150;2022-08-19T10:40:24;2.70;;;0.70;;
65150;SDS011;51918;51.856;0.150;2022-08-19T10:45:27;2.55;;;0.90;;
65150;SDS011;51918;51.856;0.150;2022-08-19T10:50:27;3.22;;;1.05;;
65150;SDS011;51918;51.856;0.150;2022-08-19T10:55:28;2.60;;;0.75;;
65150;SDS011;51918;51.856;0.150;2022-08-19T11:00:30;3.53;;;0.75;;
65150;SDS011;51918;51.856;0.150;2022-08-19T11:05:30;2.47;;;1.20;;
65150;SDS011;51918;51.856;0.150;2022-08-19T11:10:31;2.58;;;0.82;;
65150;SDS011;51918;51.856;0.150;2022-08-19T11:15:33;2.22;;;0.73;;
65150;SDS011;51918;51.856;0.150;2022-08-19T11:20:34;4.57;;;0.90;;
65150;SDS011;51918;51.856;0.150;2022-08-19T11:25:34;3.05;;;1.00;;
65150;SDS011;51918;51.856;0.150;2022-08-19T11:30:39;3.35;;;0.93;;
65150;SDS011;51918;51.856;0.150;2022-08-19T11:35:40;2.67;;;0.90;;
65150;SDS011;51918;51.856;0.150;2022-08-19T11:40:41;3.50;;;1.10;;
65150;SDS011;51918;51.856;0.150;2022-08-19T11:45:43;2.85;;;0.90;;
65150;SDS011;51918;51.856;0.150;2022-08-19T11:50:44;2.95;;;1.00;;
65150;SDS011;51918;51.856;0.150;2022-08-19T11:55:44;3.40;;;1.00;;
65150;SDS011;51918;51.856;0.150;2022-08-19T12:00:47;3.28;;;1.00;;
65150;SDS011;51918;51.856;0.150;2022-08-19T12:05:47;3.85;;;1.08;;
65150;SDS011;51918;51.856;0.150;2022-08-19T12:10:48;4.95;;;1.23;;
65150;SDS011;51918;51.856;0.150;2022-08-19T12:15:50;3.70;;;0.95;;
65150;SDS011;51918;51.856;0.150;2022-08-19T12:20:51;4.75;;;1.30;;
65150;SDS011;51918;51.856;0.150;2022-08-19T12:25:53;5.18;;;1.15;;
65150;SDS011;51918;51.856;0.150;2022-08-19T12:30:55;4.40;;;1.30;;
65150;SDS011;51918;51.856;0.150;2022-08-19T12:35:59;3.83;;;1.10;;
65150;SDS011;51918;51.856;0.150;2022-08-19T12:41:01;4.70;;;1.20;;
65150;SDS011;51918;51.856;0.150;2022-08-19T12:46:05;3.17;;;1.00;;
65150;SDS011;51918;51.856;0.150;2022-08-19T12:51:06;4.18;;;1.00;;
65150;SDS011;51918;51.856;0.150;2022-08-19T12:56:09;6.20;;;1.35;;
65150;SDS011;51918;51.856;0.150;2022-08-19T13:01:13;4.53;;;1.25;;
65150;SDS011;51918;51.856;0.150;2022-08-19T13:06:15;4.30;;;1.08;;
65150;SDS011;51918;51.856;0.150;2022-08-19T13:11:16;3.70;;;1.05;;
65150;SDS011;51918;51.856;0.150;2022-08-19T13:16:21;2.55;;;0.95;;
65150;SDS011;51918;51.856;0.150;2022-08-19T13:21:22;4.13;;;1.02;;
65150;SDS011;51918;51.856;0.150;2022-08-19T13:26:24;4.68;;;1.10;;
65150;SDS011;51918;51.856;0.150;2022-08-19T13:31:27;3.85;;;1.00;;
65150;SDS011;51918;51.856;0.150;2022-08-19T13:36:29;4.90;;;1.10;;
65150;SDS011;51918;51.856;0.150;2022-08-19T13:41:30;4.85;;;1.13;;
65150;SDS011;51918;51.856;0.150;2022-08-19T13:46:32;3.72;;;0.90;;
65150;SDS011;51918;51.856;0.150;2022-08-19T13:51:33;3.75;;;1.08;;
65150;SDS011;51918;51.856;0.150;2022-08-19T13:56:34;5.03;;;0.88;;
65150;SDS011;51918;51.856;0.150;2022-08-19T14:01:36;4.07;;;1.00;;
65150;SDS011;51918;51.856;0.150;2022-08-19T14:06:37;5.05;;;1.13;;
65150;SDS011;51918;51.856;0.150;2022-08-19T14:11:38;6.00;;;1.27;;
65150;SDS011;51918;51.856;0.150;2022-08-19T14:16:40;4.80;;;1.20;;
65150;SDS011;51918;51.856;0.150;2022-08-19T14:21:41;4.25;;;0.90;;
65150;SDS011;51918;51.856;0.150;2022-08-19T14:26:41;5.65;;;1.17;;
65150;SDS011;51918;51.856;0.150;2022-08-19T14:31:43;6.70;;;1.40;;
65150;SDS011;51918;51.856;0.150;2022-08-19T14:36:44;5.38;;;1.15;;
65150;SDS011;51918;51.856;0.150;2022-08-19T14:41:44;5.32;;;1.23;;
65150;SDS011;51918;51.856;0.150;2022-08-19T14:46:47;3.50;;;0.90;;
65150;SDS011;51918;51.856;0.150;2022-08-19T14:51:47;5.03;;;1.17;;
65150;SDS011;51918;51.856;0.150;2022-08-19T14:56:49;3.63;;;0.80;;
65150;SDS011;51918;51.856;0.150;2022-08-19T15:01:52;5.43;;;1.40;;
65150;SDS011;51918;51.856;0.150;2022-08-19T15:06:52;3.72;;;1.30;;
65150;SDS011;51918;51.856;0.150;2022-08-19T15:11:53;6.30;;;1.15;;
65150;SDS011;51918;51.856;0.150;2022-08-19T15:16:55;6.97;;;1.40;;
65150;SDS011;51918;51.856;0.150;2022-08-19T15:21:56;6.68;;;1.20;;
65150;SDS011;51918;51.856;0.150;2022-08-19T15:26:56;5.70;;;1.40;;
65150;SDS011;51918;51.856;0.150;2022-08-19T15:31:58;6.47;;;1.42;;
65150;SDS011;51918;51.856;0.150;2022-08-19T15:37:00;4.65;;;1.23;;
65150;SDS011;51918;51.856;0.150;2022-08-19T15:42:00;4.00;;;1.17;;
65150;SDS011;51918;51.856;0.150;2022-08-19T15:47:04;5.47;;;1.20;;
65150;SDS011;51918;51.856;0.150;2022-08-19T15:52:05;5.68;;;1.25;;
65150;SDS011;51918;51.856;0.150;2022-08-19T15:57:05;4.95;;;1.05;;
65150;SDS011;51918;51.856;0.150;2022-08-19T16:02:08;6.05;;;1.20;;
65150;SDS011;51918;51.856;0.150;2022-08-19T16:07:08;4.82;;;1.40;;
65150;SDS011;51918;51.856;0.150;2022-08-19T16:12:09;5.93;;;1.52;;
65150;SDS011;51918;51.856;0.150;2022-08-19T16:17:11;4.75;;;1.00;;
65150;SDS011;51918;51.856;0.150;2022-08-19T16:22:11;6.43;;;1.15;;
65150;SDS011;51918;51.856;0.150;2022-08-19T16:27:12;6.72;;;1.38;;
65150;SDS011;51918;51.856;0.150;2022-08-19T16:32:14;7.00;;;1.60;;
65150;SDS011;51918;51.856;0.150;2022-08-19T16:37:15;4.15;;;1.10;;
65150;SDS011;51918;51.856;0.150;2022-08-19T16:42:16;4.88;;;1.05;;
65150;SDS011;51918;51.856;0.150;2022-08-19T16:47:18;4.25;;;0.90;;
65150;SDS011;51918;51.856;0.150;2022-08-19T16:52:20;3.67;;;1.00;;
65150;SDS011;51918;51.856;0.150;2022-08-19T16:57:20;3.25;;;1.00;;
65150;SDS011;51918;51.856;0.150;2022-08-19T17:02:23;5.72;;;1.20;;
65150;SDS011;51918;51.856;0.150;2022-08-19T17:07:24;6.28;;;1.25;;
65150;SDS011;51918;51.856;0.150;2022-08-19T17:12:25;3.70;;;1.10;;
65150;SDS011;51918;51.856;0.150;2022-08-19T17:17:28;4.05;;;1.20;;
65150;SDS011;51918;51.856;0.150;2022-08-19T17:22:29;5.43;;;1.33;;
65150;SDS011;51918;51.856;0.150;2022-08-19T17:27:30;5.63;;;1.13;;
65150;SDS011;51918;51.856;0.150;2022-08-19T17:32:32;4.93;;;1.02;;
65150;SDS011;51918;51.856;0.150;2022-08-19T17:37:33;3.97;;;1.30;;
65150;SDS011;51918;51.856;0.150;2022-08-19T17:42:34;4.05;;;1.02;;
65150;SDS011;51918;51.856;0.150;2022-08-19T17:47:37;6.90;;;1.23;;
65150;SDS011;51918;51.856;0.150;2022-08-19T17:52:38;4.55;;;1.23;;
65150;SDS011;51918;51.856;0.150;2022-08-19T17:57:40;5.32;;;1.25;;
65150;SDS011;51918;51.856;0.150;2022-08-19T18:02:46;5.72;;;1.20;;
65150;SDS011;51918;51.856;0.150;2022-08-19T18:07:48;4.30;;;1.15;;
65150;SDS011;51918;51.856;0.150;2022-08-19T18:12:49;4.57;;;1.10;;
65150;SDS011;51918;51.856;0.150;2022-08-19T18:17:51;4.75;;;1.17;;
65150;SDS011;51918;51.856;0.150;2022-08-19T18:22:52;4.80;;;1.10;;
65150;SDS011;51918;51.856;0.150;2022-08-19T18:27:53;6.20;;;1.10;;
65150;SDS011;51918;51.856;0.150;2022-08-19T18:32:56;6.10;;;1.40;;
65150;SDS011;51918;51.856;0.150;2022-08-19T18:37:58;6.40;;;1.70;;
65150;SDS011;51918;51.856;0.150;2022-08-19T18:43:00;4.88;;;1.20;;
65150;SDS011;51918;51.856;0.150;2022-08-19T18:48:03;4.55;;;1.20;;
65150;SDS011;51918;51.856;0.150;2022-08-19T18:53:04;4.45;;;1.20;;
65150;SDS011;51918;51.856;0.150;2022-08-19T18:58:05;4.03;;;0.93;;
65150;SDS011;51918;51.856;0.150;2022-08-19T19:03:07;4.80;;;1.42;;
65150;SDS011;51918;51.856;0.150;2022-08-19T19:08:07;3.15;;;0.90;;
65150;SDS011;51918;51.856;0.150;2022-08-19T19:13:08;5.30;;;1.10;;
65150;SDS011;51918;51.856;0.150;2022-08-19T19:18:10;2.70;;;0.93;;
65150;SDS011;51918;51.856;0.150;2022-08-19T19:23:10;4.18;;;1.10;;
65150;SDS011;51918;51.856;0.150;2022-08-19T19:28:11;4.90;;;1.20;;
65150;SDS011;51918;51.856;0.150;2022-08-19T19:33:13;2.88;;;0.80;;
65150;SDS011;51918;51.856;0.150;2022-08-19T19:38:14;5.82;;;1.27;;
65150;SDS011;51918;51.856;0.150;2022-08-19T19:43:14;9.48;;;1.05;;
65150;SDS011;51918;51.856;0.150;2022-08-19T19:48:16;6.18;;;1.15;;
65150;SDS011;51918;51.856;0.150;2022-08-19T19:53:17;3.42;;;0.85;;
65150;SDS011;51918;51.856;0.150;2022-08-19T19:58:18;3.38;;;0.90;;
65150;SDS011;51918;51.856;0.150;2022-08-19T20:03:20;2.97;;;0.90;;
65150;SDS011;51918;51.856;0.150;2022-08-19T20:08:21;3.63;;;1.00;;
65150;SDS011;51918;51.856;0.150;2022-08-19T20:13:21;3.47;;;0.88;;
65150;SDS011;51918;51.856;0.150;2022-08-19T20:18:23;4.82;;;1.17;;
65150;SDS011;51918;51.856;0.150;2022-08-19T20:23:24;5.53;;;1.33;;
65150;SDS011;51918;51.856;0.150;2022-08-19T20:28:26;4.78;;;1.40;;
65150;SDS011;51918;51.856;0.150;2022-08-19T20:33:28;3.75;;;1.10;;
65150;SDS011;51918;51.856;0.150;2022-08-19T20:38:28;3.33;;;1.17;;
65150;SDS011;51918;51.856;0.150;2022-08-19T20:43:29;4.22;;;1.38;;
65150;SDS011;51918;51.856;0.150;2022-08-19T20:48:32;3.25;;;1.08;;
65150;SDS011;51918;51.856;0.150;2022-08-19T20:53:32;5.68;;;1.25;;
65150;SDS011;51918;51.856;0.150;2022-08-19T20:58:33;2.55;;;1.30;;
65150;SDS011;51918;51.856;0.150;2022-08-19T21:08:38;6.30;;;2.08;;
65150;SDS011;51918;51.856;0.150;2022-08-19T21:13:39;2.63;;;0.90;;
65150;SDS011;51918;51.856;0.150;2022-08-19T21:18:41;5.10;;;1.13;;
65150;SDS011;51918;51.856;0.150;2022-08-19T21:23:42;4.88;;;1.00;;
65150;SDS011;51918;51.856;0.150;2022-08-19T21:33:44;3.03;;;1.20;;
65150;SDS011;51918;51.856;0.150;2022-08-19T21:38:44;4.93;;;1.20;;
65150;SDS011;51918;51.856;0.150;2022-08-19T21:48:47;5.47;;;1.83;;
65150;SDS011;51918;51.856;0.150;2022-08-19T21:53:47;5.10;;;1.50;;
65150;SDS011;51918;51.856;0.150;2022-08-19T21:58:48;3.85;;;1.13;;
65150;SDS011;51918;51.856;0.150;2022-08-19T22:03:50;3.28;;;1.20;;
65150;SDS011;51918;51.856;0.150;2022-08-19T22:08:51;5.68;;;1.40;;
65150;SDS011;51918;51.856;0.150;2022-08-19T22:18:53;5.57;;;1.20;;
65150;SDS011;51918;51.856;0.150;2022-08-19T22:23:54;3.15;;;0.88;;
65150;SDS011;51918;51.856;0.150;2022-08-19T22:33:56;5.03;;;1.17;;
65150;SDS011;51918;51.856;0.150;2022-08-19T22:38:57;6.15;;;1.30;;
65150;SDS011;51918;51.856;0.150;2022-08-19T22:48:59;5.43;;;1.60;;
65150;SDS011;51918;51.856;0.150;2022-08-19T22:54:00;4.32;;;1.40;;
65150;SDS011;51918;51.856;0.150;2022-08-19T23:04:03;3.00;;;1.10;;
65150;SDS011;51918;51.856;0.150;2022-08-19T23:09:04;3.13;;;1.30;;
65150;SDS011;51918;51.856;0.150;2022-08-19T23:14:06;7.28;;;1.52;;
65150;SDS011;51918;51.856;0.150;2022-08-19T23:19:08;5.88;;;1.40;;
65150;SDS011;51918;51.856;0.150;2022-08-19T23:24:09;3.92;;;1.20;;
65150;SDS011;51918;51.856;0.150;2022-08-19T23:29:10;4.60;;;1.17;;
65150;SDS011;51918;51.856;0.150;2022-08-19T23:39:13;6.03;;;1.33;;
65150;SDS011;51918;51.856;0.150;2022-08-19T23:49:15;4.93;;;1.27;;
65150;SDS011;51918;51.856;0.150;2022-08-19T23:54:16;4.97;;;1.35;;
65150;SDS011;51918;51.856;0.150;2022-08-19T23:59:16;5.75;;;1.23;;
